Time,TemperatureF,DewpointF,PressureIn,WindDirection,WindDirectionDegrees,WindSpeedMPH,WindSpeedGustMPH,Humidity,HourlyPrecipIn,Conditions,Clouds,dailyrainin,SoftwareType,DateUTC
2013-05-08 00:01:00,57.0,49.0,29.84,SSE,157,0.0,0.0,75,0.00,,,0.00,Rainwise IP-100,2013-05-08 04:01:00,
2013-05-08 00:06:00,56.7,49.0,29.85,SSE,157,0.0,2.0,77,0.00,,,0.00,Rainwise IP-100,2013-05-08 04:06:00,
2013-05-08 00:11:00,56.8,50.0,29.85,SSE,157,0.0,2.0,77,0.00,,,0.00,Rainwise IP-100,2013-05-08 04:11:00,
2013-05-08 00:16:00,56.9,50.5,29.85,SSE,157,0.0,0.0,78,0.00,,,0.00,Rainwise IP-100,2013-05-08 04:16:00,
2013-05-08 00:21:00,57.1,50.5,29.85,SSE,157,0.0,0.0,78,0.00,,,0.00,Rainwise IP-100,2013-05-08 04:21:00,
2013-05-08 00:26:00,56.9,50.5,29.85,SSE,157,0.0,0.0,79,0.00,,,0.00,Rainwise IP-100,2013-05-08 04:26:00,
2013-05-08 00:31:00,56.7,50.0,29.85,SSE,157,0.0,0.0,79,0.00,,,0.00,Rainwise IP-100,2013-05-08 04:31:00,
2013-05-08 00:37:00,56.6,50.5,29.85,SSE,157,0.0,0.0,81,0.00,,,0.00,Rainwise IP-100,2013-05-08 04:37:00,
2013-05-08 00:42:00,56.7,51.0,29.85,SSE,157,0.0,0.0,82,0.00,,,0.00,Rainwise IP-100,2013-05-08 04:42:00,
2013-05-08 00:47:00,56.9,52.0,29.85,SSE,157,0.0,0.0,83,0.00,,,0.00,Rainwise IP-100,2013-05-08 04:47:00,
2013-05-08 00:52:00,57.1,52.0,29.85,SSE,157,0.0,0.0,83,0.00,,,0.00,Rainwise IP-100,2013-05-08 04:52:00,
2013-05-08 00:57:00,57.2,52.0,29.86,SSE,157,0.0,0.0,83,0.00,,,0.00,Rainwise IP-100,2013-05-08 04:57:00,
2013-05-08 01:02:00,57.2,52.0,29.85,SSE,157,0.0,0.0,83,0.00,,,0.00,Rainwise IP-100,2013-05-08 05:02:00,
2013-05-08 01:07:00,56.9,52.0,29.86,SSE,157,0.0,0.0,83,0.00,,,0.00,Rainwise IP-100,2013-05-08 05:07:00,
2013-05-08 01:12:00,56.6,52.0,29.85,SSE,157,0.0,0.0,84,0.00,,,0.00,Rainwise IP-100,2013-05-08 05:12:00,
2013-05-08 01:18:00,56.4,53.0,29.85,SSE,157,0.0,0.0,86,0.00,,,0.00,Rainwise IP-100,2013-05-08 05:18:00,
2013-05-08 01:23:00,56.1,52.0,29.85,SSE,157,0.0,0.0,86,0.00,,,0.00,Rainwise IP-100,2013-05-08 05:23:00,
2013-05-08 01:28:00,55.9,53.0,29.85,SSE,157,0.0,0.0,88,0.00,,,0.00,Rainwise IP-100,2013-05-08 05:28:00,
2013-05-08 01:33:00,56.1,53.0,29.85,SSE,157,0.0,0.0,89,0.00,,,0.00,Rainwise IP-100,2013-05-08 05:33:00,
2013-05-08 01:38:00,56.5,53.5,29.85,SSE,157,0.0,0.0,89,0.00,,,0.00,Rainwise IP-100,2013-05-08 05:38:00,
2013-05-08 01:43:00,56.5,53.5,29.85,ENE,67,1.0,4.0,89,0.00,,,0.00,Rainwise IP-100,2013-05-08 05:43:00,
2013-05-08 01:48:00,56.4,53.5,29.85,ENE,67,2.0,4.0,90,0.00,,,0.00,Rainwise IP-100,2013-05-08 05:48:00,
2013-05-08 01:54:00,56.5,54.0,29.85,ENE,67,3.0,4.0,91,0.00,,,0.00,Rainwise IP-100,2013-05-08 05:54:00,
2013-05-08 01:59:00,56.7,54.0,29.85,ENE,67,3.0,4.0,91,0.00,,,0.00,Rainwise IP-100,2013-05-08 05:59:00,
2013-05-08 02:04:00,56.9,54.5,29.85,ENE,67,1.0,4.0,91,0.00,,,0.00,Rainwise IP-100,2013-05-08 06:04:00,
2013-05-08 02:09:00,57.1,54.0,29.85,ENE,67,1.0,3.0,89,0.00,,,0.00,Rainwise IP-100,2013-05-08 06:09:00,
2013-05-08 02:14:00,56.8,54.0,29.85,ENE,67,2.0,4.0,89,0.00,,,0.00,Rainwise IP-100,2013-05-08 06:14:00,
2013-05-08 02:19:00,56.3,54.0,29.85,ENE,67,2.0,3.0,91,0.00,,,0.00,Rainwise IP-100,2013-05-08 06:19:00,
2013-05-08 02:24:00,56.3,54.5,29.85,ENE,67,2.0,4.0,93,0.00,,,0.00,Rainwise IP-100,2013-05-08 06:24:00,
2013-05-08 02:29:00,56.4,54.0,29.85,ENE,67,2.0,3.0,92,0.00,,,0.00,Rainwise IP-100,2013-05-08 06:29:00,
2013-05-08 02:35:00,56.6,54.0,29.85,ENE,67,1.0,3.0,91,0.00,,,0.00,Rainwise IP-100,2013-05-08 06:35:00,
2013-05-08 02:40:00,56.5,54.0,29.85,ENE,67,1.0,2.0,91,0.00,,,0.00,Rainwise IP-100,2013-05-08 06:40:00,
2013-05-08 02:45:00,56.5,53.5,29.85,ENE,67,1.0,3.0,90,0.00,,,0.00,Rainwise IP-100,2013-05-08 06:45:00,
2013-05-08 02:50:00,56.1,54.0,29.85,ENE,67,2.0,3.0,93,0.00,,,0.00,Rainwise IP-100,2013-05-08 06:50:00,
2013-05-08 02:55:00,55.9,54.0,29.85,ENE,67,1.0,3.0,94,0.00,,,0.00,Rainwise IP-100,2013-05-08 06:55:00,
2013-05-08 03:00:00,55.8,54.0,29.85,ENE,67,0.0,3.0,94,0.00,,,0.00,Rainwise IP-100,2013-05-08 07:00:00,
2013-05-08 03:05:00,55.6,54.0,29.85,ENE,67,0.0,0.0,94,0.00,,,0.00,Rainwise IP-100,2013-05-08 07:05:00,
2013-05-08 03:11:00,55.3,54.0,29.85,ENE,67,0.0,0.0,95,0.00,,,0.00,Rainwise IP-100,2013-05-08 07:11:00,
2013-05-08 03:16:00,54.8,54.5,29.85,ENE,67,0.0,1.0,97,0.00,,,0.00,Rainwise IP-100,2013-05-08 07:16:00,
2013-05-08 03:21:00,54.5,54.0,29.85,ENE,67,0.0,0.0,97,0.00,,,0.00,Rainwise IP-100,2013-05-08 07:21:00,
2013-05-08 03:26:00,54.2,53.5,29.85,ENE,67,0.0,0.0,98,0.00,,,0.00,Rainwise IP-100,2013-05-08 07:26:00,
2013-05-08 03:31:00,53.9,54.0,29.85,ENE,67,0.0,0.0,99,0.00,,,0.00,Rainwise IP-100,2013-05-08 07:31:00,
2013-05-08 03:36:00,53.8,54.0,29.85,ENE,67,0.0,1.0,99,0.00,,,0.00,Rainwise IP-100,2013-05-08 07:36:00,
2013-05-08 03:41:00,53.9,54.0,29.85,ENE,67,0.0,1.0,100,0.00,,,0.00,Rainwise IP-100,2013-05-08 07:41:00,
2013-05-08 03:46:00,53.9,54.0,29.85,ENE,67,1.0,2.0,100,0.00,,,0.00,Rainwise IP-100,2013-05-08 07:46:00,
2013-05-08 03:52:00,54.2,54.0,29.85,ENE,67,1.0,2.0,100,0.00,,,0.00,Rainwise IP-100,2013-05-08 07:52:00,
2013-05-08 03:57:00,54.3,54.5,29.85,ENE,67,0.0,2.0,100,0.00,,,0.00,Rainwise IP-100,2013-05-08 07:57:00,
2013-05-08 04:02:00,54.4,54.5,29.85,ENE,67,2.0,3.0,100,0.00,,,0.00,Rainwise IP-100,2013-05-08 08:02:00,
2013-05-08 04:07:00,54.3,54.5,29.85,ENE,67,0.0,2.0,100,0.00,,,0.00,Rainwise IP-100,2013-05-08 08:07:00,
2013-05-08 04:12:00,53.9,54.0,29.86,ENE,67,0.0,0.0,99,0.00,,,0.00,Rainwise IP-100,2013-05-08 08:12:00,
2013-05-08 04:17:00,53.9,54.0,29.85,ENE,67,0.0,1.0,100,0.00,,,0.00,Rainwise IP-100,2013-05-08 08:17:00,
2013-05-08 04:22:00,53.8,54.0,29.85,ENE,67,0.0,1.0,100,0.00,,,0.00,Rainwise IP-100,2013-05-08 08:22:00,
2013-05-08 04:27:00,53.9,54.0,29.85,ENE,67,1.0,2.0,100,0.00,,,0.00,Rainwise IP-100,2013-05-08 08:27:00,
2013-05-08 04:33:00,54.1,54.0,29.85,ENE,67,1.0,2.0,100,0.00,,,0.00,Rainwise IP-100,2013-05-08 08:33:00,
2013-05-08 04:38:00,54.3,54.5,29.85,ENE,67,1.0,3.0,100,0.00,,,0.00,Rainwise IP-100,2013-05-08 08:38:00,
2013-05-08 04:43:00,54.4,54.5,29.85,ENE,67,1.0,2.0,100,0.00,,,0.00,Rainwise IP-100,2013-05-08 08:43:00,
2013-05-08 04:48:00,54.5,54.5,29.85,ENE,67,0.0,2.0,100,0.00,,,0.00,Rainwise IP-100,2013-05-08 08:48:00,
2013-05-08 04:53:00,54.5,54.5,29.85,ENE,67,0.0,0.0,100,0.00,,,0.00,Rainwise IP-100,2013-05-08 08:53:00,
2013-05-08 04:58:00,54.3,54.5,29.85,ENE,67,0.0,2.0,100,0.00,,,0.00,Rainwise IP-100,2013-05-08 08:58:00,
2013-05-08 05:03:00,54.0,54.0,29.85,ENE,67,0.0,2.0,100,0.00,,,0.00,Rainwise IP-100,2013-05-08 09:03:00,
2013-05-08 05:08:00,53.8,54.0,29.85,ENE,67,0.0,0.0,100,0.00,,,0.00,Rainwise IP-100,2013-05-08 09:08:00,
2013-05-08 05:14:00,53.6,53.5,29.86,ENE,67,0.0,1.0,100,0.00,,,0.00,Rainwise IP-100,2013-05-08 09:14:00,
2013-05-08 05:19:00,53.2,53.0,29.86,ENE,67,0.0,2.0,100,0.00,,,0.00,Rainwise IP-100,2013-05-08 09:19:00,
2013-05-08 05:24:00,52.8,53.0,29.86,ENE,67,1.0,1.0,100,0.00,,,0.00,Rainwise IP-100,2013-05-08 09:24:00,
2013-05-08 05:29:00,52.5,53.0,29.86,ENE,67,1.0,1.0,100,0.00,,,0.00,Rainwise IP-100,2013-05-08 09:29:00,
2013-05-08 05:34:00,52.5,53.0,29.86,ENE,67,1.0,2.0,100,0.00,,,0.00,Rainwise IP-100,2013-05-08 09:34:00,
2013-05-08 05:39:00,52.4,52.0,29.86,ENE,67,2.0,2.0,100,0.00,,,0.00,Rainwise IP-100,2013-05-08 09:39:00,
2013-05-08 05:44:00,52.5,53.0,29.86,ENE,67,0.0,2.0,100,0.00,,,0.00,Rainwise IP-100,2013-05-08 09:44:00,
2013-05-08 05:49:00,52.2,52.0,29.86,ENE,67,1.0,1.0,100,0.00,,,0.00,Rainwise IP-100,2013-05-08 09:49:00,
2013-05-08 05:55:00,52.3,52.0,29.86,ENE,67,1.0,2.0,100,0.00,,,0.00,Rainwise IP-100,2013-05-08 09:55:00,
2013-05-08 06:00:00,52.2,52.0,29.86,ENE,67,1.0,2.0,100,0.00,,,0.00,Rainwise IP-100,2013-05-08 10:00:00,
2013-05-08 06:05:00,52.7,53.0,29.86,ENE,67,1.0,2.0,100,0.00,,,0.00,Rainwise IP-100,2013-05-08 10:05:00,
2013-05-08 06:10:00,52.8,53.0,29.87,ENE,67,0.0,2.0,100,0.00,,,0.00,Rainwise IP-100,2013-05-08 10:10:00,
2013-05-08 06:15:00,52.9,53.0,29.87,ENE,67,1.0,2.0,100,0.00,,,0.00,Rainwise IP-100,2013-05-08 10:15:00,
2013-05-08 06:20:00,52.9,53.0,29.87,ENE,67,1.0,2.0,100,0.00,,,0.00,Rainwise IP-100,2013-05-08 10:20:00,
2013-05-08 06:25:00,53.1,53.0,29.87,ENE,67,0.0,2.0,100,0.00,,,0.00,Rainwise IP-100,2013-05-08 10:25:00,
2013-05-08 06:31:00,53.3,53.5,29.88,ENE,67,0.0,2.0,100,0.00,,,0.00,Rainwise IP-100,2013-05-08 10:31:00,
2013-05-08 06:36:00,53.5,53.5,29.88,ENE,67,1.0,2.0,100,0.00,,,0.00,Rainwise IP-100,2013-05-08 10:36:00,
2013-05-08 06:41:00,53.6,53.5,29.88,ENE,67,0.0,2.0,100,0.00,,,0.00,Rainwise IP-100,2013-05-08 10:41:00,
2013-05-08 06:46:00,53.8,54.0,29.88,ENE,67,1.0,1.0,100,0.00,,,0.00,Rainwise IP-100,2013-05-08 10:46:00,
2013-05-08 06:51:00,54.1,54.0,29.88,ENE,67,0.0,2.0,100,0.00,,,0.00,Rainwise IP-100,2013-05-08 10:51:00,
2013-05-08 06:56:00,54.5,54.5,29.88,ENE,67,0.0,1.0,100,0.00,,,0.00,Rainwise IP-100,2013-05-08 10:56:00,
2013-05-08 07:01:00,55.0,55.0,29.88,ENE,67,0.0,1.0,100,0.00,,,0.00,Rainwise IP-100,2013-05-08 11:01:00,
2013-05-08 07:06:00,55.5,56.0,29.88,ENE,67,0.0,1.0,100,0.00,,,0.00,Rainwise IP-100,2013-05-08 11:06:00,
2013-05-08 07:12:00,56.3,56.5,29.88,ENE,67,0.0,0.0,100,0.00,,,0.00,Rainwise IP-100,2013-05-08 11:12:00,
2013-05-08 07:17:00,56.6,56.5,29.88,ENE,67,0.0,1.0,100,0.00,,,0.00,Rainwise IP-100,2013-05-08 11:17:00,
2013-05-08 07:22:00,57.3,57.5,29.88,ENE,67,0.0,1.0,100,0.00,,,0.00,Rainwise IP-100,2013-05-08 11:22:00,
2013-05-08 07:27:00,57.8,58.0,29.89,ENE,67,0.0,0.0,100,0.00,,,0.00,Rainwise IP-100,2013-05-08 11:27:00,
2013-05-08 07:32:00,58.1,58.0,29.89,ENE,67,0.0,2.0,100,0.00,,,0.00,Rainwise IP-100,2013-05-08 11:32:00,
2013-05-08 07:37:00,58.6,59.0,29.89,ENE,67,0.0,1.0,100,0.00,,,0.00,Rainwise IP-100,2013-05-08 11:37:00,
2013-05-08 07:42:00,59.3,59.5,29.89,ENE,67,0.0,1.0,100,0.00,,,0.00,Rainwise IP-100,2013-05-08 11:42:00,
2013-05-08 07:45:00,59.8,60.0,29.89,ENE,67,0.0,1.0,100,0.00,,,0.00,Rainwise IP-100,2013-05-08 11:45:00,
2013-05-08 07:50:00,60.5,60.5,29.90,ENE,67,0.0,1.0,100,0.00,,,0.00,Rainwise IP-100,2013-05-08 11:50:00,
2013-05-08 07:56:00,61.1,59.5,29.90,SSE,157,4.0,6.0,94,0.00,,,0.00,Rainwise IP-100,2013-05-08 11:56:00,
2013-05-08 08:01:00,61.4,59.5,29.90,SSE,157,0.0,4.0,93,0.00,,,0.00,Rainwise IP-100,2013-05-08 12:01:00,
2013-05-08 08:06:00,61.6,59.5,29.90,SSE,157,1.0,2.0,92,0.00,,,0.00,Rainwise IP-100,2013-05-08 12:06:00,
2013-05-08 08:11:00,61.8,60.0,29.90,SSE,157,0.0,2.0,93,0.00,,,0.00,Rainwise IP-100,2013-05-08 12:11:00,
2013-05-08 08:16:00,62.4,59.0,29.91,South,180,3.0,6.0,87,0.00,,,0.00,Rainwise IP-100,2013-05-08 12:16:00,
2013-05-08 08:21:00,62.8,59.5,29.91,South,180,2.0,4.0,88,0.00,,,0.00,Rainwise IP-100,2013-05-08 12:21:00,
2013-05-08 08:26:00,63.2,59.0,29.92,South,180,1.0,5.0,86,0.00,,,0.00,Rainwise IP-100,2013-05-08 12:26:00,
2013-05-08 08:31:00,63.7,60.0,29.92,SSW,202,0.0,3.0,88,0.00,,,0.00,Rainwise IP-100,2013-05-08 12:31:00,
2013-05-08 08:36:00,64.0,60.5,29.92,West,270,0.0,1.0,88,0.00,,,0.00,Rainwise IP-100,2013-05-08 12:36:00,
2013-05-08 08:42:00,64.2,59.5,29.92,SE,135,1.0,2.0,85,0.00,,,0.00,Rainwise IP-100,2013-05-08 12:42:00,
2013-05-08 08:47:00,64.4,60.0,29.92,SE,135,0.0,3.0,86,0.00,,,0.00,Rainwise IP-100,2013-05-08 12:47:00,
2013-05-08 08:52:00,64.8,59.5,29.92,NNW,337,3.0,6.0,82,0.00,,,0.00,Rainwise IP-100,2013-05-08 12:52:00,
2013-05-08 08:57:00,65.3,60.0,29.92,NW,315,4.0,5.0,82,0.00,,,0.00,Rainwise IP-100,2013-05-08 12:57:00,
2013-05-08 09:02:00,65.6,60.0,29.92,South,180,0.0,4.0,82,0.00,,,0.00,Rainwise IP-100,2013-05-08 13:02:00,
2013-05-08 09:07:00,65.9,60.0,29.92,SSE,157,2.0,5.0,82,0.00,,,0.00,Rainwise IP-100,2013-05-08 13:07:00,
2013-05-08 09:12:00,66.1,60.0,29.92,WNW,292,2.0,6.0,82,0.00,,,0.00,Rainwise IP-100,2013-05-08 13:12:00,
2013-05-08 09:18:00,66.4,59.5,29.92,NW,315,0.0,4.0,79,0.00,,,0.00,Rainwise IP-100,2013-05-08 13:18:00,
2013-05-08 09:23:00,66.7,60.5,29.92,NW,315,1.0,2.0,81,0.00,,,0.00,Rainwise IP-100,2013-05-08 13:23:00,
2013-05-08 09:28:00,66.8,59.5,29.92,SSE,157,0.0,6.0,77,0.00,,,0.00,Rainwise IP-100,2013-05-08 13:28:00,
2013-05-08 09:33:00,67.2,60.5,29.92,South,180,1.0,5.0,79,0.00,,,0.00,Rainwise IP-100,2013-05-08 13:33:00,
2013-05-08 09:38:00,67.4,60.0,29.92,SSE,157,2.0,7.0,77,0.00,,,0.00,Rainwise IP-100,2013-05-08 13:38:00,
2013-05-08 09:43:00,67.4,58.0,29.92,SSE,157,3.0,6.0,72,0.00,,,0.00,Rainwise IP-100,2013-05-08 13:43:00,
2013-05-08 09:48:00,67.2,57.0,29.92,South,180,1.0,7.0,70,0.00,,,0.00,Rainwise IP-100,2013-05-08 13:48:00,
2013-05-08 09:53:00,67.6,58.0,29.91,SSE,157,3.0,8.0,72,0.00,,,0.00,Rainwise IP-100,2013-05-08 13:53:00,
2013-05-08 09:59:00,68.0,59.0,29.92,East,90,3.0,6.0,73,0.00,,,0.00,Rainwise IP-100,2013-05-08 13:59:00,
2013-05-08 10:04:00,68.1,58.0,29.92,South,180,3.0,6.0,71,0.00,,,0.00,Rainwise IP-100,2013-05-08 14:04:00,
2013-05-08 10:09:00,68.3,59.0,29.91,SE,135,1.0,6.0,71,0.00,,,0.00,Rainwise IP-100,2013-05-08 14:09:00,
2013-05-08 10:14:00,69.0,58.0,29.91,SSE,157,1.0,6.0,69,0.00,,,0.00,Rainwise IP-100,2013-05-08 14:14:00,
2013-05-08 10:19:00,69.4,58.0,29.91,SSE,157,3.0,5.0,68,0.00,,,0.00,Rainwise IP-100,2013-05-08 14:19:00,
2013-05-08 10:24:00,69.5,57.0,29.91,East,90,0.0,6.0,65,0.00,,,0.00,Rainwise IP-100,2013-05-08 14:24:00,
2013-05-08 10:29:00,69.9,58.0,29.91,ESE,112,4.0,7.0,66,0.00,,,0.00,Rainwise IP-100,2013-05-08 14:29:00,
2013-05-08 10:35:00,70.1,57.5,29.91,North,360,0.0,7.0,65,0.00,,,0.00,Rainwise IP-100,2013-05-08 14:35:00,
2013-05-08 10:40:00,70.8,58.0,29.91,SSE,157,1.0,5.0,65,0.00,,,0.00,Rainwise IP-100,2013-05-08 14:40:00,
2013-05-08 10:45:00,72.1,57.0,29.91,South,180,2.0,6.0,60,0.00,,,0.00,Rainwise IP-100,2013-05-08 14:45:00,
2013-05-08 10:50:00,73.9,58.0,29.91,SSE,157,5.0,5.0,58,0.00,,,0.00,Rainwise IP-100,2013-05-08 14:50:00,
2013-05-08 10:52:00,73.7,58.0,29.91,East,90,1.0,6.0,58,0.00,,,0.00,Rainwise IP-100,2013-05-08 14:52:00,
2013-05-08 10:57:00,73.8,58.0,29.91,ESE,112,0.0,7.0,58,0.00,,,0.00,Rainwise IP-100,2013-05-08 14:57:00,
2013-05-08 11:03:00,73.9,57.5,29.91,South,180,1.0,6.0,56,0.00,,,0.00,Rainwise IP-100,2013-05-08 15:03:00,
2013-05-08 11:08:00,75.1,58.0,29.92,SSW,202,1.0,6.0,56,0.00,,,0.00,Rainwise IP-100,2013-05-08 15:08:00,
2013-05-08 11:13:00,76.2,59.0,29.92,NE,45,1.0,7.0,55,0.00,,,0.00,Rainwise IP-100,2013-05-08 15:13:00,
2013-05-08 11:18:00,76.9,59.0,29.92,West,270,4.0,6.0,53,0.00,,,0.00,Rainwise IP-100,2013-05-08 15:18:00,
2013-05-08 11:23:00,76.8,57.0,29.92,NE,45,0.0,6.0,50,0.00,,,0.00,Rainwise IP-100,2013-05-08 15:23:00,
2013-05-08 11:28:00,77.7,58.0,29.92,SE,135,3.0,5.0,51,0.00,,,0.00,Rainwise IP-100,2013-05-08 15:28:00,
2013-05-08 11:33:00,77.8,58.0,29.92,SE,135,5.0,6.0,51,0.00,,,0.00,Rainwise IP-100,2013-05-08 15:33:00,
2013-05-08 11:39:00,76.7,56.5,29.92,West,270,2.0,7.0,49,0.00,,,0.00,Rainwise IP-100,2013-05-08 15:39:00,
2013-05-08 11:44:00,77.9,59.0,29.92,ESE,112,5.0,6.0,52,0.00,,,0.00,Rainwise IP-100,2013-05-08 15:44:00,
2013-05-08 11:49:00,77.5,58.0,29.92,SE,135,7.0,9.0,51,0.00,,,0.00,Rainwise IP-100,2013-05-08 15:49:00,
2013-05-08 11:54:00,78.2,58.0,29.92,South,180,4.0,7.0,50,0.00,,,0.00,Rainwise IP-100,2013-05-08 15:54:00,
2013-05-08 11:59:00,77.3,55.0,29.92,SE,135,3.0,9.0,46,0.00,,,0.00,Rainwise IP-100,2013-05-08 15:59:00,
2013-05-08 12:04:00,78.0,59.0,29.92,ESE,112,3.0,9.0,52,0.00,,,0.00,Rainwise IP-100,2013-05-08 16:04:00,
2013-05-08 12:09:00,78.6,57.5,29.91,SSE,157,1.0,7.0,48,0.00,,,0.00,Rainwise IP-100,2013-05-08 16:09:00,
2013-05-08 12:14:00,78.4,60.0,29.91,SE,135,1.0,5.0,53,0.00,,,0.00,Rainwise IP-100,2013-05-08 16:14:00,
2013-05-08 12:20:00,78.2,58.0,29.91,SSE,157,3.0,3.0,50,0.00,,,0.00,Rainwise IP-100,2013-05-08 16:20:00,
2013-05-08 12:25:00,77.0,56.5,29.91,SSE,157,1.0,6.0,49,0.00,,,0.00,Rainwise IP-100,2013-05-08 16:25:00,
2013-05-08 12:30:00,76.7,58.0,29.91,SE,135,0.0,4.0,53,0.00,,,0.00,Rainwise IP-100,2013-05-08 16:30:00,
2013-05-08 12:35:00,76.4,58.0,29.91,SSE,157,2.0,6.0,53,0.00,,,0.00,Rainwise IP-100,2013-05-08 16:35:00,
2013-05-08 12:40:00,76.6,57.0,29.90,South,180,2.0,8.0,51,0.00,,,0.00,Rainwise IP-100,2013-05-08 16:40:00,
2013-05-08 12:45:00,76.2,55.0,29.90,South,180,6.0,7.0,48,0.00,,,0.00,Rainwise IP-100,2013-05-08 16:45:00,
2013-05-08 12:50:00,76.2,56.5,29.90,SSE,157,0.0,7.0,50,0.00,,,0.00,Rainwise IP-100,2013-05-08 16:50:00,
2013-05-08 12:56:00,76.1,56.0,29.90,SE,135,4.0,6.0,50,0.00,,,0.00,Rainwise IP-100,2013-05-08 16:56:00,
2013-05-08 13:01:00,75.5,57.0,29.90,SSE,157,1.0,6.0,53,0.00,,,0.00,Rainwise IP-100,2013-05-08 17:01:00,
2013-05-08 13:06:00,74.7,56.5,29.89,SW,225,7.0,7.0,53,0.00,,,0.00,Rainwise IP-100,2013-05-08 17:06:00,
2013-05-08 13:11:00,74.4,56.5,29.89,South,180,1.0,7.0,54,0.00,,,0.00,Rainwise IP-100,2013-05-08 17:11:00,
2013-05-08 13:16:00,74.2,56.5,29.89,SSW,202,3.0,6.0,54,0.00,,,0.00,Rainwise IP-100,2013-05-08 17:16:00,
2013-05-08 13:21:00,74.7,57.0,29.89,SE,135,5.0,6.0,54,0.00,,,0.00,Rainwise IP-100,2013-05-08 17:21:00,
2013-05-08 13:26:00,75.1,56.5,29.88,SE,135,1.0,7.0,52,0.00,,,0.00,Rainwise IP-100,2013-05-08 17:26:00,
2013-05-08 15:18:00,76.6,58.0,29.86,SSE,157,2.0,6.0,53,0.00,,,0.00,Rainwise IP-100,2013-05-08 19:18:00,
2013-05-08 15:23:00,76.6,58.0,29.86,SE,135,0.0,7.0,53,0.00,,,0.00,Rainwise IP-100,2013-05-08 19:23:00,
2013-05-08 15:28:00,76.7,58.0,29.85,SSE,157,2.0,6.0,53,0.00,,,0.00,Rainwise IP-100,2013-05-08 19:28:00,
2013-05-08 15:33:00,76.7,57.5,29.85,South,180,1.0,5.0,52,0.00,,,0.00,Rainwise IP-100,2013-05-08 19:33:00,
2013-05-08 15:45:00,75.9,59.0,29.85,NW,315,1.0,4.0,56,0.00,,,0.00,Rainwise IP-100,2013-05-08 19:45:00,
2013-05-08 15:51:00,76.2,59.0,29.84,South,180,0.0,5.0,55,0.00,,,0.00,Rainwise IP-100,2013-05-08 19:51:00,
2013-05-08 15:56:00,75.9,58.0,29.84,SE,135,1.0,6.0,54,0.00,,,0.00,Rainwise IP-100,2013-05-08 19:56:00,
2013-05-08 16:01:00,75.8,59.5,29.84,SW,225,1.0,6.0,57,0.00,,,0.00,Rainwise IP-100,2013-05-08 20:01:00,
2013-05-08 16:06:00,75.7,59.5,29.84,SE,135,0.0,4.0,57,0.00,,,0.00,Rainwise IP-100,2013-05-08 20:06:00,
2013-05-08 16:11:00,75.8,59.0,29.84,WSW,247,0.0,5.0,56,0.00,,,0.00,Rainwise IP-100,2013-05-08 20:11:00,
2013-05-08 16:16:00,75.3,59.5,29.84,WSW,247,2.0,6.0,57,0.00,,,0.00,Rainwise IP-100,2013-05-08 20:16:00,
2013-05-08 16:21:00,74.5,60.0,29.84,West,270,1.0,7.0,60,0.00,,,0.00,Rainwise IP-100,2013-05-08 20:21:00,
2013-05-08 16:26:00,73.8,60.5,29.84,East,90,0.0,9.0,63,0.00,,,0.00,Rainwise IP-100,2013-05-08 20:26:00,
2013-05-08 16:32:00,72.2,63.5,29.85,SSE,157,2.0,4.0,74,0.00,,,0.00,Rainwise IP-100,2013-05-08 20:32:00,
2013-05-08 16:37:00,70.3,65.0,29.85,WSW,247,0.0,5.0,82,0.06,,,0.01,Rainwise IP-100,2013-05-08 20:37:00,
2013-05-08 16:42:00,68.9,65.0,29.84,SSE,157,0.0,3.0,87,0.06,,,0.01,Rainwise IP-100,2013-05-08 20:42:00,
2013-05-08 16:47:00,68.3,66.0,29.84,SSE,157,0.0,2.0,91,0.00,,,0.01,Rainwise IP-100,2013-05-08 20:47:00,
2013-05-08 16:52:00,67.9,66.3,29.84,SSE,157,0.0,0.0,94,0.00,,,0.01,Rainwise IP-100,2013-05-08 20:52:00,
2013-05-08 16:57:00,67.3,66.3,29.84,SSE,157,0.0,1.0,95,0.00,,,0.01,Rainwise IP-100,2013-05-08 20:57:00,
2013-05-08 17:02:00,67.0,66.0,29.84,SSE,157,0.0,1.0,96,0.00,,,0.01,Rainwise IP-100,2013-05-08 21:02:00,
2013-05-08 17:08:00,66.9,66.0,29.84,NNW,337,2.0,6.0,95,0.00,,,0.01,Rainwise IP-100,2013-05-08 21:08:00,
2013-05-08 17:13:00,66.9,65.5,29.84,SW,225,0.0,5.0,94,0.00,,,0.01,Rainwise IP-100,2013-05-08 21:13:00,
2013-05-08 17:18:00,67.1,65.0,29.83,South,180,1.0,5.0,93,0.00,,,0.01,Rainwise IP-100,2013-05-08 21:18:00,
2013-05-08 17:23:00,67.3,65.5,29.83,South,180,0.0,1.0,93,0.00,,,0.01,Rainwise IP-100,2013-05-08 21:23:00,
2013-05-08 17:28:00,67.6,67.0,29.83,South,180,0.0,1.0,98,0.00,,,0.01,Rainwise IP-100,2013-05-08 21:28:00,
2013-05-08 17:33:00,67.7,64.5,29.83,NE,45,0.0,5.0,90,0.00,,,0.01,Rainwise IP-100,2013-05-08 21:33:00,
2013-05-08 17:38:00,67.9,65.0,29.83,NE,45,0.0,2.0,90,0.00,,,0.01,Rainwise IP-100,2013-05-08 21:38:00,
2013-05-08 17:43:00,68.2,64.5,29.82,North,360,2.0,3.0,89,0.00,,,0.01,Rainwise IP-100,2013-05-08 21:43:00,
2013-05-08 17:49:00,68.4,63.0,29.82,NW,315,5.0,5.0,83,0.00,,,0.01,Rainwise IP-100,2013-05-08 21:49:00,
2013-05-08 17:54:00,68.6,65.0,29.82,NNW,337,0.0,6.0,89,0.00,,,0.01,Rainwise IP-100,2013-05-08 21:54:00,
2013-05-08 17:59:00,68.6,63.0,29.82,NNW,337,0.0,4.0,83,0.00,,,0.01,Rainwise IP-100,2013-05-08 21:59:00,
2013-05-08 18:04:00,68.7,65.0,29.82,NE,45,0.0,5.0,88,0.00,,,0.01,Rainwise IP-100,2013-05-08 22:04:00,
2013-05-08 18:09:00,68.7,64.0,29.82,NE,45,0.0,1.0,86,0.00,,,0.01,Rainwise IP-100,2013-05-08 22:09:00,
2013-05-08 18:14:00,68.7,64.0,29.82,North,360,0.0,3.0,86,0.00,,,0.01,Rainwise IP-100,2013-05-08 22:14:00,
2013-05-08 18:19:00,68.6,65.0,29.82,North,360,0.0,0.0,89,0.00,,,0.01,Rainwise IP-100,2013-05-08 22:19:00,
2013-05-08 18:25:00,68.5,65.0,29.82,North,360,0.0,0.0,89,0.00,,,0.01,Rainwise IP-100,2013-05-08 22:25:00,
2013-05-08 18:30:00,68.3,64.0,29.82,NNW,337,0.0,4.0,85,0.00,,,0.01,Rainwise IP-100,2013-05-08 22:30:00,
2013-05-08 18:35:00,68.1,63.5,29.82,NNW,337,0.0,1.0,86,0.00,,,0.01,Rainwise IP-100,2013-05-08 22:35:00,
2013-05-08 18:40:00,67.6,64.0,29.82,South,180,0.0,3.0,88,0.00,,,0.01,Rainwise IP-100,2013-05-08 22:40:00,
2013-05-08 18:45:00,66.9,64.0,29.82,South,180,0.0,0.0,90,0.06,,,0.02,Rainwise IP-100,2013-05-08 22:45:00,
2013-05-08 18:50:00,66.1,63.0,29.82,South,180,0.0,0.0,91,0.06,,,0.02,Rainwise IP-100,2013-05-08 22:50:00,
2013-05-08 18:55:00,65.6,64.0,29.82,South,180,0.0,0.0,95,0.00,,,0.02,Rainwise IP-100,2013-05-08 22:55:00,
2013-05-08 19:01:00,64.8,64.5,29.82,SSE,157,0.0,5.0,98,0.18,,,0.05,Rainwise IP-100,2013-05-08 23:01:00,
2013-05-08 19:06:00,63.9,64.0,29.82,NNW,337,2.0,8.0,100,0.30,,,0.07,Rainwise IP-100,2013-05-08 23:06:00,
2013-05-08 19:11:00,63.5,63.5,29.82,East,90,0.0,5.0,100,0.18,,,0.08,Rainwise IP-100,2013-05-08 23:11:00,
2013-05-08 19:16:00,63.2,63.0,29.82,NW,315,2.0,2.0,100,0.12,,,0.09,Rainwise IP-100,2013-05-08 23:16:00,
2013-05-08 19:21:00,62.9,63.0,29.81,NW,315,0.0,4.0,100,0.06,,,0.09,Rainwise IP-100,2013-05-08 23:21:00,
2013-05-08 19:26:00,62.7,62.5,29.81,NW,315,0.0,0.0,100,0.06,,,0.10,Rainwise IP-100,2013-05-08 23:26:00,
2013-05-08 19:31:00,62.6,62.5,29.82,NW,315,0.0,0.0,100,0.06,,,0.10,Rainwise IP-100,2013-05-08 23:31:00,
2013-05-08 19:36:00,62.3,62.5,29.82,NW,315,0.0,0.0,100,0.06,,,0.11,Rainwise IP-100,2013-05-08 23:36:00,
2013-05-08 19:42:00,62.3,62.5,29.81,NW,315,0.0,1.0,100,0.18,,,0.13,Rainwise IP-100,2013-05-08 23:42:00,
2013-05-08 19:47:00,62.1,62.0,29.81,NW,315,0.0,1.0,100,0.12,,,0.13,Rainwise IP-100,2013-05-08 23:47:00,
2013-05-08 19:52:00,62.1,62.0,29.81,SSE,157,0.0,4.0,100,0.00,,,0.13,Rainwise IP-100,2013-05-08 23:52:00,
2013-05-08 19:57:00,61.9,62.0,29.81,SSE,157,0.0,2.0,100,0.00,,,0.13,Rainwise IP-100,2013-05-08 23:57:00,
2013-05-08 20:02:00,61.8,62.0,29.81,SSE,157,0.0,1.0,100,0.00,,,0.13,Rainwise IP-100,2013-05-09 00:02:00,
2013-05-08 20:07:00,61.7,61.5,29.80,SSE,157,0.0,0.0,100,0.00,,,0.13,Rainwise IP-100,2013-05-09 00:07:00,
2013-05-08 20:12:00,61.6,61.5,29.80,SSE,157,0.0,1.0,100,0.00,,,0.13,Rainwise IP-100,2013-05-09 00:12:00,
2013-05-08 20:18:00,61.5,61.5,29.80,SSE,157,0.0,0.0,100,0.00,,,0.13,Rainwise IP-100,2013-05-09 00:18:00,
2013-05-08 20:23:00,61.5,61.5,29.80,SSE,157,0.0,0.0,100,0.00,,,0.13,Rainwise IP-100,2013-05-09 00:23:00,
2013-05-08 20:28:00,61.5,61.5,29.80,SSE,157,0.0,0.0,100,0.00,,,0.13,Rainwise IP-100,2013-05-09 00:28:00,
2013-05-08 20:33:00,61.4,61.5,29.80,SSE,157,0.0,0.0,100,0.00,,,0.13,Rainwise IP-100,2013-05-09 00:33:00,
2013-05-08 20:38:00,61.3,61.5,29.80,SSE,157,0.0,0.0,100,0.00,,,0.13,Rainwise IP-100,2013-05-09 00:38:00,
2013-05-08 20:43:00,61.2,61.0,29.80,SSE,157,0.0,0.0,100,0.00,,,0.13,Rainwise IP-100,2013-05-09 00:43:00,
2013-05-08 20:48:00,61.2,61.0,29.80,SSE,157,0.0,0.0,100,0.00,,,0.13,Rainwise IP-100,2013-05-09 00:48:00,
2013-05-08 20:53:00,61.2,61.0,29.80,SSE,157,0.0,0.0,100,0.00,,,0.13,Rainwise IP-100,2013-05-09 00:53:00,
2013-05-08 20:58:00,61.1,61.0,29.80,SSE,157,0.0,0.0,100,0.00,,,0.13,Rainwise IP-100,2013-05-09 00:58:00,
2013-05-08 21:04:00,61.2,61.0,29.80,SSE,157,0.0,0.0,100,0.00,,,0.13,Rainwise IP-100,2013-05-09 01:04:00,
2013-05-08 21:09:00,61.2,61.0,29.80,SSE,157,0.0,0.0,100,0.00,,,0.13,Rainwise IP-100,2013-05-09 01:09:00,
2013-05-08 21:14:00,61.1,61.0,29.80,SSE,157,0.0,0.0,100,0.00,,,0.13,Rainwise IP-100,2013-05-09 01:14:00,
2013-05-08 21:19:00,60.9,61.0,29.80,SSE,157,0.0,0.0,100,0.00,,,0.13,Rainwise IP-100,2013-05-09 01:19:00,
2013-05-08 21:24:00,60.9,61.0,29.80,SSE,157,0.0,0.0,100,0.06,,,0.14,Rainwise IP-100,2013-05-09 01:24:00,
2013-05-08 21:29:00,60.9,61.0,29.80,SSE,157,0.0,0.0,100,0.12,,,0.15,Rainwise IP-100,2013-05-09 01:29:00,
2013-05-08 21:34:00,60.8,61.0,29.80,SSE,157,0.0,1.0,100,0.06,,,0.15,Rainwise IP-100,2013-05-09 01:34:00,
2013-05-08 21:40:00,60.7,60.5,29.80,WNW,292,0.0,2.0,100,0.06,,,0.16,Rainwise IP-100,2013-05-09 01:40:00,
2013-05-08 21:45:00,60.7,60.5,29.80,WNW,292,0.0,0.0,100,0.06,,,0.16,Rainwise IP-100,2013-05-09 01:45:00,
2013-05-08 21:50:00,60.6,60.5,29.80,WNW,292,0.0,0.0,100,0.00,,,0.16,Rainwise IP-100,2013-05-09 01:50:00,
2013-05-08 21:55:00,60.6,60.5,29.80,WNW,292,0.0,0.0,100,0.00,,,0.16,Rainwise IP-100,2013-05-09 01:55:00,
2013-05-08 22:00:00,60.5,60.5,29.79,WNW,292,0.0,0.0,100,0.00,,,0.16,Rainwise IP-100,2013-05-09 02:00:00,
2013-05-08 22:05:00,60.4,60.5,29.79,WNW,292,0.0,0.0,100,0.00,,,0.16,Rainwise IP-100,2013-05-09 02:05:00,
2013-05-08 22:10:00,60.4,60.5,29.79,WNW,292,0.0,0.0,100,0.00,,,0.16,Rainwise IP-100,2013-05-09 02:10:00,
2013-05-08 22:15:00,60.4,60.5,29.79,WNW,292,0.0,0.0,100,0.00,,,0.16,Rainwise IP-100,2013-05-09 02:15:00,
2013-05-08 22:21:00,60.6,60.5,29.79,WNW,292,0.0,0.0,100,0.00,,,0.16,Rainwise IP-100,2013-05-09 02:21:00,
2013-05-08 22:26:00,60.6,60.5,29.79,WNW,292,0.0,0.0,100,0.00,,,0.16,Rainwise IP-100,2013-05-09 02:26:00,
2013-05-08 22:31:00,60.6,60.5,29.79,WNW,292,0.0,0.0,100,0.00,,,0.16,Rainwise IP-100,2013-05-09 02:31:00,
2013-05-08 22:36:00,60.6,60.5,29.79,WNW,292,0.0,0.0,100,0.00,,,0.16,Rainwise IP-100,2013-05-09 02:36:00,
2013-05-08 22:41:00,60.6,60.5,29.79,WNW,292,0.0,0.0,100,0.00,,,0.16,Rainwise IP-100,2013-05-09 02:41:00,
2013-05-08 22:46:00,60.5,60.5,29.78,WNW,292,0.0,1.0,100,0.00,,,0.16,Rainwise IP-100,2013-05-09 02:46:00,
2013-05-08 22:51:00,60.5,60.5,29.79,WNW,292,0.0,0.0,100,0.00,,,0.16,Rainwise IP-100,2013-05-09 02:51:00,
2013-05-08 22:57:00,60.5,60.5,29.78,WNW,292,0.0,0.0,100,0.00,,,0.16,Rainwise IP-100,2013-05-09 02:57:00,
2013-05-08 23:02:00,60.2,60.0,29.78,WNW,292,0.0,0.0,100,0.00,,,0.16,Rainwise IP-100,2013-05-09 03:02:00,
2013-05-08 23:07:00,60.3,60.5,29.78,WNW,292,0.0,0.0,100,0.00,,,0.16,Rainwise IP-100,2013-05-09 03:07:00,
2013-05-08 23:12:00,60.3,60.5,29.78,WNW,292,0.0,0.0,100,0.00,,,0.16,Rainwise IP-100,2013-05-09 03:12:00,
2013-05-08 23:17:00,60.3,60.5,29.78,WNW,292,0.0,0.0,100,0.00,,,0.16,Rainwise IP-100,2013-05-09 03:17:00,
2013-05-08 23:22:00,60.3,60.5,29.78,WNW,292,0.0,0.0,100,0.00,,,0.16,Rainwise IP-100,2013-05-09 03:22:00,
2013-05-08 23:27:00,60.2,60.0,29.78,WNW,292,0.0,0.0,100,0.00,,,0.16,Rainwise IP-100,2013-05-09 03:27:00,
2013-05-08 23:32:00,60.3,60.5,29.78,WNW,292,0.0,0.0,100,0.00,,,0.16,Rainwise IP-100,2013-05-09 03:32:00,
2013-05-08 23:38:00,60.3,60.5,29.78,WNW,292,0.0,0.0,100,0.00,,,0.16,Rainwise IP-100,2013-05-09 03:38:00,
2013-05-08 23:43:00,60.3,60.5,29.77,WNW,292,0.0,0.0,100,0.00,,,0.16,Rainwise IP-100,2013-05-09 03:43:00,
2013-05-08 23:48:00,60.3,60.5,29.77,WNW,292,0.0,0.0,100,0.00,,,0.16,Rainwise IP-100,2013-05-09 03:48:00,
2013-05-08 23:53:00,60.3,60.5,29.77,WNW,292,0.0,0.0,100,0.00,,,0.16,Rainwise IP-100,2013-05-09 03:53:00,
2013-05-08 23:58:00,60.3,60.5,29.77,WNW,292,0.0,0.0,100,0.00,,,0.16,Rainwise IP-100,2013-05-09 03:58:00,